sensor_id;sensor_type;location;lat;lon;timestamp;P1;durP1;ratioP1;P2;durP2;ratioP2
4766;SDS011;2397;53.576;9.746;2022-12-11T00:00:41;21.63;;;12.53;;
4766;SDS011;2397;53.576;9.746;2022-12-11T00:03:07;20.37;;;12.63;;
4766;SDS011;2397;53.576;9.746;2022-12-11T00:05:40;22.37;;;12.23;;
4766;SDS011;2397;53.576;9.746;2022-12-11T00:08:07;19.03;;;11.10;;
4766;SDS011;2397;53.576;9.746;2022-12-11T00:10:34;18.33;;;11.43;;
4766;SDS011;2397;53.576;9.746;2022-12-11T00:13:03;21.97;;;12.80;;
4766;SDS011;2397;53.576;9.746;2022-12-11T00:15:30;20.50;;;12.27;;
4766;SDS011;2397;53.576;9.746;2022-12-11T00:17:56;18.67;;;12.07;;
4766;SDS011;2397;53.576;9.746;2022-12-11T00:20:23;21.73;;;11.90;;
4766;SDS011;2397;53.576;9.746;2022-12-11T00:22:49;23.60;;;11.97;;
4766;SDS011;2397;53.576;9.746;2022-12-11T00:25:16;19.60;;;11.53;;
4766;SDS011;2397;53.576;9.746;2022-12-11T00:27:44;25.17;;;14.83;;
4766;SDS011;2397;53.576;9.746;2022-12-11T00:30:12;22.00;;;12.50;;
4766;SDS011;2397;53.576;9.746;2022-12-11T00:32:38;18.37;;;11.00;;
4766;SDS011;2397;53.576;9.746;2022-12-11T00:35:05;19.30;;;11.83;;
4766;SDS011;2397;53.576;9.746;2022-12-11T00:37:31;17.63;;;10.60;;
4766;SDS011;2397;53.576;9.746;2022-12-11T00:39:58;20.00;;;12.30;;
4766;SDS011;2397;53.576;9.746;2022-12-11T00:42:24;20.70;;;11.77;;
4766;SDS011;2397;53.576;9.746;2022-12-11T00:44:51;24.40;;;11.87;;
4766;SDS011;2397;53.576;9.746;2022-12-11T00:47:18;18.70;;;11.17;;
4766;SDS011;2397;53.576;9.746;2022-12-11T00:49:45;17.67;;;11.13;;
4766;SDS011;2397;53.576;9.746;2022-12-11T00:52:15;17.87;;;10.17;;
4766;SDS011;2397;53.576;9.746;2022-12-11T00:54:43;19.97;;;11.07;;
4766;SDS011;2397;53.576;9.746;2022-12-11T00:57:09;19.13;;;12.00;;
4766;SDS011;2397;53.576;9.746;2022-12-11T00:59:36;16.07;;;10.10;;
4766;SDS011;2397;53.576;9.746;2022-12-11T01:02:02;15.40;;;9.63;;
4766;SDS011;2397;53.576;9.746;2022-12-11T01:04:29;16.87;;;9.87;;
4766;SDS011;2397;53.576;9.746;2022-12-11T01:06:55;15.17;;;9.33;;
4766;SDS011;2397;53.576;9.746;2022-12-11T01:09:22;13.17;;;8.63;;
4766;SDS011;2397;53.576;9.746;2022-12-11T01:12:07;14.30;;;9.47;;
4766;SDS011;2397;53.576;9.746;2022-12-11T01:14:33;13.70;;;9.30;;
4766;SDS011;2397;53.576;9.746;2022-12-11T01:16:59;16.73;;;9.50;;
4766;SDS011;2397;53.576;9.746;2022-12-11T01:19:26;16.40;;;9.43;;
4766;SDS011;2397;53.576;9.746;2022-12-11T01:21:53;15.70;;;8.67;;
4766;SDS011;2397;53.576;9.746;2022-12-11T01:24:19;12.53;;;8.10;;
4766;SDS011;2397;53.576;9.746;2022-12-11T01:26:46;13.40;;;9.10;;
4766;SDS011;2397;53.576;9.746;2022-12-11T01:29:12;14.40;;;9.30;;
4766;SDS011;2397;53.576;9.746;2022-12-11T01:31:39;19.00;;;9.40;;
4766;SDS011;2397;53.576;9.746;2022-12-11T01:34:05;16.30;;;10.10;;
4766;SDS011;2397;53.576;9.746;2022-12-11T01:36:32;15.23;;;8.87;;
4766;SDS011;2397;53.576;9.746;2022-12-11T01:38:58;16.67;;;9.67;;
4766;SDS011;2397;53.576;9.746;2022-12-11T01:41:25;15.87;;;10.00;;
4766;SDS011;2397;53.576;9.746;2022-12-11T01:44:03;19.37;;;10.47;;
4766;SDS011;2397;53.576;9.746;2022-12-11T01:46:52;13.97;;;8.50;;
4766;SDS011;2397;53.576;9.746;2022-12-11T01:49:20;16.83;;;10.00;;
4766;SDS011;2397;53.576;9.746;2022-12-11T01:51:51;14.20;;;9.00;;
4766;SDS011;2397;53.576;9.746;2022-12-11T01:54:21;16.93;;;9.47;;
4766;SDS011;2397;53.576;9.746;2022-12-11T01:56:51;15.33;;;9.13;;
4766;SDS011;2397;53.576;9.746;2022-12-11T01:59:21;23.07;;;10.33;;
4766;SDS011;2397;53.576;9.746;2022-12-11T02:02:02;16.40;;;10.00;;
4766;SDS011;2397;53.576;9.746;2022-12-11T02:04:33;13.57;;;8.93;;
4766;SDS011;2397;53.576;9.746;2022-12-11T02:07:01;18.00;;;9.67;;
4766;SDS011;2397;53.576;9.746;2022-12-11T02:09:30;15.50;;;9.70;;
4766;SDS011;2397;53.576;9.746;2022-12-11T02:14:42;17.30;;;9.60;;
4766;SDS011;2397;53.576;9.746;2022-12-11T02:20:02;13.63;;;9.83;;
4766;SDS011;2397;53.576;9.746;2022-12-11T02:22:57;16.07;;;10.53;;
4766;SDS011;2397;53.576;9.746;2022-12-11T02:25:51;16.73;;;9.90;;
4766;SDS011;2397;53.576;9.746;2022-12-11T02:28:24;16.97;;;9.80;;
4766;SDS011;2397;53.576;9.746;2022-12-11T02:31:01;19.23;;;11.40;;
4766;SDS011;2397;53.576;9.746;2022-12-11T02:33:33;15.87;;;10.50;;
4766;SDS011;2397;53.576;9.746;2022-12-11T02:36:07;14.20;;;9.00;;
4766;SDS011;2397;53.576;9.746;2022-12-11T02:38:35;17.17;;;9.03;;
4766;SDS011;2397;53.576;9.746;2022-12-11T02:41:06;14.40;;;9.97;;
4766;SDS011;2397;53.576;9.746;2022-12-11T02:43:35;16.37;;;9.40;;
4766;SDS011;2397;53.576;9.746;2022-12-11T02:46:04;15.40;;;9.63;;
4766;SDS011;2397;53.576;9.746;2022-12-11T02:48:32;13.47;;;8.50;;
4766;SDS011;2397;53.576;9.746;2022-12-11T02:51:01;17.30;;;10.80;;
4766;SDS011;2397;53.576;9.746;2022-12-11T02:53:30;15.40;;;9.53;;
4766;SDS011;2397;53.576;9.746;2022-12-11T02:56:07;14.07;;;8.83;;
4766;SDS011;2397;53.576;9.746;2022-12-11T02:58:36;14.10;;;8.97;;
4766;SDS011;2397;53.576;9.746;2022-12-11T03:01:24;13.57;;;9.87;;
4766;SDS011;2397;53.576;9.746;2022-12-11T03:03:51;15.87;;;9.10;;
4766;SDS011;2397;53.576;9.746;2022-12-11T03:06:19;13.73;;;9.23;;
4766;SDS011;2397;53.576;9.746;2022-12-11T03:08:49;14.63;;;9.33;;
4766;SDS011;2397;53.576;9.746;2022-12-11T03:11:17;16.23;;;9.80;;
4766;SDS011;2397;53.576;9.746;2022-12-11T03:13:43;17.57;;;11.07;;
4766;SDS011;2397;53.576;9.746;2022-12-11T03:16:14;20.10;;;10.40;;
4766;SDS011;2397;53.576;9.746;2022-12-11T03:19:07;16.63;;;9.53;;
4766;SDS011;2397;53.576;9.746;2022-12-11T03:24:19;19.07;;;10.77;;
4766;SDS011;2397;53.576;9.746;2022-12-11T03:27:12;18.60;;;10.17;;
4766;SDS011;2397;53.576;9.746;2022-12-11T03:29:41;14.43;;;9.27;;
4766;SDS011;2397;53.576;9.746;2022-12-11T03:32:20;14.63;;;9.80;;
4766;SDS011;2397;53.576;9.746;2022-12-11T03:34:53;16.50;;;10.03;;
4766;SDS011;2397;53.576;9.746;2022-12-11T03:37:24;17.10;;;10.90;;
4766;SDS011;2397;53.576;9.746;2022-12-11T03:39:57;17.60;;;10.40;;
4766;SDS011;2397;53.576;9.746;2022-12-11T03:42:28;18.57;;;11.40;;
4766;SDS011;2397;53.576;9.746;2022-12-11T03:44:56;18.70;;;10.10;;
4766;SDS011;2397;53.576;9.746;2022-12-11T03:47:25;16.97;;;10.13;;
4766;SDS011;2397;53.576;9.746;2022-12-11T03:49:53;15.67;;;9.53;;
4766;SDS011;2397;53.576;9.746;2022-12-11T03:52:21;14.20;;;9.60;;
4766;SDS011;2397;53.576;9.746;2022-12-11T03:54:52;19.20;;;9.80;;
4766;SDS011;2397;53.576;9.746;2022-12-11T03:57:21;18.10;;;10.80;;
4766;SDS011;2397;53.576;9.746;2022-12-11T03:59:53;18.80;;;10.80;;
4766;SDS011;2397;53.576;9.746;2022-12-11T04:02:19;18.50;;;10.60;;
4766;SDS011;2397;53.576;9.746;2022-12-11T04:04:45;21.90;;;11.60;;
4766;SDS011;2397;53.576;9.746;2022-12-11T04:07:12;16.00;;;9.70;;
4766;SDS011;2397;53.576;9.746;2022-12-11T04:09:38;20.67;;;10.70;;
4766;SDS011;2397;53.576;9.746;2022-12-11T04:12:05;13.70;;;8.90;;
4766;SDS011;2397;53.576;9.746;2022-12-11T04:14:31;17.53;;;10.37;;
4766;SDS011;2397;53.576;9.746;2022-12-11T04:17:16;18.30;;;9.90;;
4766;SDS011;2397;53.576;9.746;2022-12-11T04:20:03;18.87;;;10.53;;
4766;SDS011;2397;53.576;9.746;2022-12-11T04:22:49;16.30;;;10.40;;
4766;SDS011;2397;53.576;9.746;2022-12-11T04:25:34;18.80;;;10.57;;
4766;SDS011;2397;53.576;9.746;2022-12-11T04:28:00;17.27;;;10.37;;
4766;SDS011;2397;53.576;9.746;2022-12-11T04:30:27;14.17;;;9.30;;
4766;SDS011;2397;53.576;9.746;2022-12-11T04:32:59;14.13;;;9.17;;
4766;SDS011;2397;53.576;9.746;2022-12-11T04:35:26;18.50;;;10.03;;
4766;SDS011;2397;53.576;9.746;2022-12-11T04:37:53;19.00;;;10.10;;
4766;SDS011;2397;53.576;9.746;2022-12-11T04:40:19;21.80;;;12.33;;
4766;SDS011;2397;53.576;9.746;2022-12-11T04:42:46;16.37;;;10.00;;
4766;SDS011;2397;53.576;9.746;2022-12-11T04:45:13;18.37;;;12.03;;
4766;SDS011;2397;53.576;9.746;2022-12-11T04:47:40;18.77;;;9.43;;
4766;SDS011;2397;53.576;9.746;2022-12-11T04:50:08;26.83;;;11.27;;
4766;SDS011;2397;53.576;9.746;2022-12-11T04:52:36;18.20;;;11.10;;
4766;SDS011;2397;53.576;9.746;2022-12-11T04:55:03;15.70;;;10.10;;
4766;SDS011;2397;53.576;9.746;2022-12-11T04:57:31;18.37;;;10.40;;
4766;SDS011;2397;53.576;9.746;2022-12-11T04:59:57;17.07;;;10.73;;
4766;SDS011;2397;53.576;9.746;2022-12-11T05:02:25;18.57;;;11.33;;
4766;SDS011;2397;53.576;9.746;2022-12-11T05:04:52;19.43;;;11.10;;
4766;SDS011;2397;53.576;9.746;2022-12-11T05:07:18;19.57;;;10.70;;
4766;SDS011;2397;53.576;9.746;2022-12-11T05:09:44;19.93;;;11.90;;
4766;SDS011;2397;53.576;9.746;2022-12-11T05:12:11;18.70;;;10.53;;
4766;SDS011;2397;53.576;9.746;2022-12-11T05:14:37;17.80;;;10.77;;
4766;SDS011;2397;53.576;9.746;2022-12-11T05:17:03;16.43;;;10.30;;
4766;SDS011;2397;53.576;9.746;2022-12-11T05:19:30;21.57;;;11.40;;
4766;SDS011;2397;53.576;9.746;2022-12-11T05:21:56;22.30;;;11.33;;
4766;SDS011;2397;53.576;9.746;2022-12-11T05:24:22;19.53;;;12.10;;
4766;SDS011;2397;53.576;9.746;2022-12-11T05:26:49;18.40;;;11.30;;
4766;SDS011;2397;53.576;9.746;2022-12-11T05:29:15;15.70;;;10.50;;
4766;SDS011;2397;53.576;9.746;2022-12-11T05:31:42;17.03;;;10.30;;
4766;SDS011;2397;53.576;9.746;2022-12-11T05:34:08;16.87;;;10.07;;
4766;SDS011;2397;53.576;9.746;2022-12-11T05:36:35;19.70;;;11.50;;
4766;SDS011;2397;53.576;9.746;2022-12-11T05:39:02;17.70;;;11.00;;
4766;SDS011;2397;53.576;9.746;2022-12-11T05:41:29;19.23;;;10.27;;
4766;SDS011;2397;53.576;9.746;2022-12-11T05:43:57;20.70;;;11.70;;
4766;SDS011;2397;53.576;9.746;2022-12-11T05:46:25;18.20;;;10.40;;
4766;SDS011;2397;53.576;9.746;2022-12-11T05:48:54;19.97;;;11.03;;
4766;SDS011;2397;53.576;9.746;2022-12-11T05:51:23;17.40;;;11.00;;
4766;SDS011;2397;53.576;9.746;2022-12-11T05:53:51;17.17;;;10.10;;
4766;SDS011;2397;53.576;9.746;2022-12-11T05:56:19;17.40;;;10.50;;
4766;SDS011;2397;53.576;9.746;2022-12-11T05:58:48;20.33;;;11.87;;
4766;SDS011;2397;53.576;9.746;2022-12-11T06:01:20;24.27;;;12.50;;
4766;SDS011;2397;53.576;9.746;2022-12-11T06:03:48;18.03;;;10.50;;
4766;SDS011;2397;53.576;9.746;2022-12-11T06:06:15;18.63;;;11.37;;
4766;SDS011;2397;53.576;9.746;2022-12-11T06:08:41;25.20;;;11.70;;
4766;SDS011;2397;53.576;9.746;2022-12-11T06:11:08;16.87;;;11.20;;
4766;SDS011;2397;53.576;9.746;2022-12-11T06:13:36;19.40;;;11.60;;
4766;SDS011;2397;53.576;9.746;2022-12-11T06:16:03;18.77;;;10.70;;
4766;SDS011;2397;53.576;9.746;2022-12-11T06:18:34;20.27;;;11.87;;
4766;SDS011;2397;53.576;9.746;2022-12-11T06:21:09;12.87;;;8.83;;
4766;SDS011;2397;53.576;9.746;2022-12-11T06:23:41;23.73;;;10.67;;
4766;SDS011;2397;53.576;9.746;2022-12-11T06:26:09;15.97;;;9.00;;
4766;SDS011;2397;53.576;9.746;2022-12-11T06:28:36;16.10;;;8.80;;
4766;SDS011;2397;53.576;9.746;2022-12-11T06:31:03;18.17;;;9.10;;
4766;SDS011;2397;53.576;9.746;2022-12-11T06:33:30;15.03;;;9.23;;
4766;SDS011;2397;53.576;9.746;2022-12-11T06:36:16;17.07;;;9.30;;
4766;SDS011;2397;53.576;9.746;2022-12-11T06:38:45;15.07;;;8.87;;
4766;SDS011;2397;53.576;9.746;2022-12-11T06:41:13;17.97;;;8.63;;
4766;SDS011;2397;53.576;9.746;2022-12-11T06:43:40;14.43;;;8.17;;
4766;SDS011;2397;53.576;9.746;2022-12-11T06:46:09;12.07;;;8.40;;
4766;SDS011;2397;53.576;9.746;2022-12-11T06:48:36;14.50;;;9.03;;
4766;SDS011;2397;53.576;9.746;2022-12-11T06:51:04;11.93;;;8.50;;
4766;SDS011;2397;53.576;9.746;2022-12-11T06:53:34;15.03;;;8.40;;
4766;SDS011;2397;53.576;9.746;2022-12-11T06:56:02;13.67;;;8.40;;
4766;SDS011;2397;53.576;9.746;2022-12-11T06:58:34;13.87;;;7.57;;
4766;SDS011;2397;53.576;9.746;2022-12-11T07:01:02;14.97;;;8.30;;
4766;SDS011;2397;53.576;9.746;2022-12-11T07:03:29;12.30;;;8.30;;
4766;SDS011;2397;53.576;9.746;2022-12-11T07:06:00;11.43;;;8.00;;
4766;SDS011;2397;53.576;9.746;2022-12-11T07:08:27;13.93;;;8.33;;
4766;SDS011;2397;53.576;9.746;2022-12-11T07:10:54;10.67;;;7.80;;
4766;SDS011;2397;53.576;9.746;2022-12-11T07:13:21;12.90;;;7.07;;
4766;SDS011;2397;53.576;9.746;2022-12-11T07:15:47;14.93;;;8.20;;
4766;SDS011;2397;53.576;9.746;2022-12-11T07:18:14;12.40;;;7.97;;
4766;SDS011;2397;53.576;9.746;2022-12-11T07:20:40;12.30;;;7.80;;
4766;SDS011;2397;53.576;9.746;2022-12-11T07:23:07;13.57;;;8.10;;
4766;SDS011;2397;53.576;9.746;2022-12-11T07:25:35;9.90;;;7.77;;
4766;SDS011;2397;53.576;9.746;2022-12-11T07:28:02;15.90;;;9.07;;
4766;SDS011;2397;53.576;9.746;2022-12-11T07:30:29;13.30;;;8.17;;
4766;SDS011;2397;53.576;9.746;2022-12-11T07:32:56;15.40;;;8.17;;
4766;SDS011;2397;53.576;9.746;2022-12-11T07:35:22;17.50;;;10.10;;
4766;SDS011;2397;53.576;9.746;2022-12-11T07:37:48;15.87;;;8.77;;
4766;SDS011;2397;53.576;9.746;2022-12-11T07:40:15;13.83;;;8.50;;
4766;SDS011;2397;53.576;9.746;2022-12-11T07:42:42;14.63;;;9.23;;
4766;SDS011;2397;53.576;9.746;2022-12-11T07:45:11;16.73;;;9.53;;
4766;SDS011;2397;53.576;9.746;2022-12-11T07:47:38;15.50;;;9.23;;
4766;SDS011;2397;53.576;9.746;2022-12-11T07:50:05;18.10;;;10.50;;
4766;SDS011;2397;53.576;9.746;2022-12-11T07:52:32;14.90;;;7.93;;
4766;SDS011;2397;53.576;9.746;2022-12-11T07:54:59;14.63;;;8.77;;
4766;SDS011;2397;53.576;9.746;2022-12-11T07:57:26;15.67;;;9.30;;
4766;SDS011;2397;53.576;9.746;2022-12-11T07:59:53;15.50;;;9.60;;
4766;SDS011;2397;53.576;9.746;2022-12-11T08:02:19;18.20;;;11.63;;
4766;SDS011;2397;53.576;9.746;2022-12-11T08:04:47;16.63;;;8.53;;
4766;SDS011;2397;53.576;9.746;2022-12-11T08:07:13;15.20;;;8.80;;
4766;SDS011;2397;53.576;9.746;2022-12-11T08:09:39;19.90;;;9.70;;
4766;SDS011;2397;53.576;9.746;2022-12-11T08:12:06;21.90;;;12.83;;
4766;SDS011;2397;53.576;9.746;2022-12-11T08:14:32;28.93;;;15.37;;
4766;SDS011;2397;53.576;9.746;2022-12-11T08:16:59;29.63;;;15.70;;
4766;SDS011;2397;53.576;9.746;2022-12-11T08:19:27;25.17;;;13.53;;
4766;SDS011;2397;53.576;9.746;2022-12-11T08:21:53;27.17;;;16.67;;
4766;SDS011;2397;53.576;9.746;2022-12-11T08:24:20;26.37;;;15.07;;
4766;SDS011;2397;53.576;9.746;2022-12-11T08:26:47;21.70;;;13.37;;
4766;SDS011;2397;53.576;9.746;2022-12-11T08:29:13;22.83;;;12.97;;
4766;SDS011;2397;53.576;9.746;2022-12-11T08:31:40;21.77;;;12.77;;
4766;SDS011;2397;53.576;9.746;2022-12-11T08:34:07;19.50;;;10.60;;
4766;SDS011;2397;53.576;9.746;2022-12-11T08:36:33;20.13;;;11.80;;
4766;SDS011;2397;53.576;9.746;2022-12-11T08:39:00;22.57;;;11.50;;
4766;SDS011;2397;53.576;9.746;2022-12-11T08:41:27;22.13;;;11.83;;
4766;SDS011;2397;53.576;9.746;2022-12-11T08:43:56;18.37;;;11.07;;
4766;SDS011;2397;53.576;9.746;2022-12-11T08:46:24;19.60;;;10.67;;
4766;SDS011;2397;53.576;9.746;2022-12-11T08:48:53;16.53;;;9.47;;
4766;SDS011;2397;53.576;9.746;2022-12-11T08:51:21;19.73;;;10.37;;
4766;SDS011;2397;53.576;9.746;2022-12-11T08:53:49;13.37;;;8.17;;
4766;SDS011;2397;53.576;9.746;2022-12-11T08:56:17;15.10;;;8.87;;
4766;SDS011;2397;53.576;9.746;2022-12-11T08:58:45;18.20;;;10.43;;
4766;SDS011;2397;53.576;9.746;2022-12-11T09:01:13;19.67;;;10.20;;
4766;SDS011;2397;53.576;9.746;2022-12-11T09:03:42;16.17;;;9.37;;
4766;SDS011;2397;53.576;9.746;2022-12-11T09:06:13;16.30;;;9.80;;
4766;SDS011;2397;53.576;9.746;2022-12-11T09:08:41;15.73;;;9.43;;
4766;SDS011;2397;53.576;9.746;2022-12-11T09:11:18;21.47;;;10.50;;
4766;SDS011;2397;53.576;9.746;2022-12-11T09:13:49;18.60;;;10.70;;
4766;SDS011;2397;53.576;9.746;2022-12-11T09:16:16;15.27;;;9.30;;
4766;SDS011;2397;53.576;9.746;2022-12-11T09:18:44;16.60;;;9.40;;
4766;SDS011;2397;53.576;9.746;2022-12-11T09:21:13;18.00;;;9.33;;
4766;SDS011;2397;53.576;9.746;2022-12-11T09:23:40;21.60;;;10.00;;
4766;SDS011;2397;53.576;9.746;2022-12-11T09:26:08;15.10;;;8.77;;
4766;SDS011;2397;53.576;9.746;2022-12-11T09:28:37;18.90;;;9.57;;
4766;SDS011;2397;53.576;9.746;2022-12-11T09:31:15;17.43;;;9.80;;
4766;SDS011;2397;53.576;9.746;2022-12-11T09:33:45;14.90;;;8.63;;
4766;SDS011;2397;53.576;9.746;2022-12-11T09:36:11;15.73;;;9.33;;
4766;SDS011;2397;53.576;9.746;2022-12-11T09:38:38;21.57;;;11.97;;
4766;SDS011;2397;53.576;9.746;2022-12-11T09:41:28;20.17;;;11.43;;
4766;SDS011;2397;53.576;9.746;2022-12-11T09:46:41;21.97;;;10.60;;
4766;SDS011;2397;53.576;9.746;2022-12-11T09:49:12;17.27;;;10.03;;
4766;SDS011;2397;53.576;9.746;2022-12-11T09:54:49;20.50;;;10.77;;
4766;SDS011;2397;53.576;9.746;2022-12-11T10:00:19;13.80;;;8.27;;
4766;SDS011;2397;53.576;9.746;2022-12-11T10:05:32;16.70;;;9.13;;
4766;SDS011;2397;53.576;9.746;2022-12-11T10:10:57;13.10;;;7.67;;
4766;SDS011;2397;53.576;9.746;2022-12-11T10:13:30;15.03;;;9.00;;
4766;SDS011;2397;53.576;9.746;2022-12-11T10:16:21;13.20;;;7.90;;
4766;SDS011;2397;53.576;9.746;2022-12-11T10:19:17;14.40;;;8.90;;
4766;SDS011;2397;53.576;9.746;2022-12-11T10:21:47;16.93;;;8.10;;
4766;SDS011;2397;53.576;9.746;2022-12-11T10:24:19;17.40;;;8.87;;
4766;SDS011;2397;53.576;9.746;2022-12-11T10:27:20;13.30;;;8.27;;
4766;SDS011;2397;53.576;9.746;2022-12-11T10:29:50;15.47;;;8.70;;
4766;SDS011;2397;53.576;9.746;2022-12-11T10:32:32;11.97;;;7.57;;
4766;SDS011;2397;53.576;9.746;2022-12-11T10:35:08;12.87;;;8.37;;
4766;SDS011;2397;53.576;9.746;2022-12-11T10:37:44;10.40;;;6.60;;
4766;SDS011;2397;53.576;9.746;2022-12-11T10:40:11;9.53;;;6.80;;
4766;SDS011;2397;53.576;9.746;2022-12-11T10:42:38;13.23;;;8.20;;
4766;SDS011;2397;53.576;9.746;2022-12-11T10:45:14;11.63;;;6.83;;
4766;SDS011;2397;53.576;9.746;2022-12-11T10:47:41;14.10;;;9.10;;
4766;SDS011;2397;53.576;9.746;2022-12-11T10:50:20;12.63;;;7.53;;
4766;SDS011;2397;53.576;9.746;2022-12-11T10:52:49;13.00;;;7.73;;
4766;SDS011;2397;53.576;9.746;2022-12-11T10:55:18;17.03;;;8.00;;
4766;SDS011;2397;53.576;9.746;2022-12-11T10:58:16;15.70;;;7.13;;
4766;SDS011;2397;53.576;9.746;2022-12-11T11:00:45;13.90;;;8.77;;
4766;SDS011;2397;53.576;9.746;2022-12-11T12:05:03;8.43;;;6.33;;
4766;SDS011;2397;53.576;9.746;2022-12-11T12:10:23;12.90;;;7.00;;
4766;SDS011;2397;53.576;9.746;2022-12-11T12:13:00;18.80;;;7.70;;
4766;SDS011;2397;53.576;9.746;2022-12-11T12:16:03;14.47;;;6.57;;
4766;SDS011;2397;53.576;9.746;2022-12-11T12:21:38;8.20;;;6.10;;
4766;SDS011;2397;53.576;9.746;2022-12-11T12:30:20;9.57;;;6.10;;
4766;SDS011;2397;53.576;9.746;2022-12-11T12:36:05;11.73;;;6.40;;
4766;SDS011;2397;53.576;9.746;2022-12-11T12:38:51;8.23;;;6.90;;
4766;SDS011;2397;53.576;9.746;2022-12-11T12:49:35;12.57;;;7.03;;
4766;SDS011;2397;53.576;9.746;2022-12-11T12:52:06;11.30;;;7.43;;
4766;SDS011;2397;53.576;9.746;2022-12-11T12:54:41;10.50;;;7.07;;
4766;SDS011;2397;53.576;9.746;2022-12-11T12:57:31;10.60;;;6.70;;
4766;SDS011;2397;53.576;9.746;2022-12-11T12:59:59;12.03;;;7.00;;
4766;SDS011;2397;53.576;9.746;2022-12-11T13:02:26;11.23;;;6.80;;
4766;SDS011;2397;53.576;9.746;2022-12-11T13:05:01;11.03;;;6.60;;
4766;SDS011;2397;53.576;9.746;2022-12-11T13:07:32;11.60;;;7.20;;
4766;SDS011;2397;53.576;9.746;2022-12-11T13:10:00;11.50;;;6.73;;
4766;SDS011;2397;53.576;9.746;2022-12-11T13:12:38;12.87;;;7.00;;
4766;SDS011;2397;53.576;9.746;2022-12-11T13:17:52;10.00;;;6.60;;
4766;SDS011;2397;53.576;9.746;2022-12-11T13:20:20;11.47;;;7.00;;
4766;SDS011;2397;53.576;9.746;2022-12-11T13:23:07;12.70;;;7.57;;
4766;SDS011;2397;53.576;9.746;2022-12-11T13:25:45;13.97;;;7.67;;
4766;SDS011;2397;53.576;9.746;2022-12-11T13:28:22;13.60;;;7.73;;
4766;SDS011;2397;53.576;9.746;2022-12-11T13:33:42;16.70;;;8.43;;
4766;SDS011;2397;53.576;9.746;2022-12-11T13:38:48;9.07;;;6.90;;
4766;SDS011;2397;53.576;9.746;2022-12-11T13:41:18;13.00;;;7.80;;
4766;SDS011;2397;53.576;9.746;2022-12-11T13:43:46;10.40;;;7.30;;
4766;SDS011;2397;53.576;9.746;2022-12-11T13:46:14;51.80;;;9.30;;
4766;SDS011;2397;53.576;9.746;2022-12-11T13:48:49;11.83;;;7.77;;
4766;SDS011;2397;53.576;9.746;2022-12-11T13:51:20;17.07;;;8.07;;
4766;SDS011;2397;53.576;9.746;2022-12-11T13:53:48;13.27;;;7.87;;
4766;SDS011;2397;53.576;9.746;2022-12-11T13:56:26;15.17;;;8.43;;
4766;SDS011;2397;53.576;9.746;2022-12-11T13:58:53;12.60;;;6.93;;
4766;SDS011;2397;53.576;9.746;2022-12-11T14:01:20;11.33;;;7.90;;
4766;SDS011;2397;53.576;9.746;2022-12-11T14:04:03;14.13;;;8.30;;
4766;SDS011;2397;53.576;9.746;2022-12-11T14:06:34;12.60;;;7.83;;
4766;SDS011;2397;53.576;9.746;2022-12-11T14:09:03;15.00;;;7.83;;
4766;SDS011;2397;53.576;9.746;2022-12-11T14:11:40;15.80;;;10.20;;
4766;SDS011;2397;53.576;9.746;2022-12-11T14:14:21;21.10;;;10.27;;
4766;SDS011;2397;53.576;9.746;2022-12-11T14:16:53;21.67;;;10.30;;
4766;SDS011;2397;53.576;9.746;2022-12-11T14:19:20;31.43;;;12.90;;
4766;SDS011;2397;53.576;9.746;2022-12-11T14:21:55;37.07;;;15.20;;
4766;SDS011;2397;53.576;9.746;2022-12-11T14:24:27;27.63;;;12.90;;
4766;SDS011;2397;53.576;9.746;2022-12-11T14:26:54;28.00;;;13.97;;
4766;SDS011;2397;53.576;9.746;2022-12-11T14:31:55;20.67;;;11.97;;
4766;SDS011;2397;53.576;9.746;2022-12-11T14:34:33;21.23;;;12.67;;
4766;SDS011;2397;53.576;9.746;2022-12-11T14:37:04;18.97;;;10.57;;
4766;SDS011;2397;53.576;9.746;2022-12-11T14:39:34;19.13;;;11.03;;
4766;SDS011;2397;53.576;9.746;2022-12-11T14:42:02;18.63;;;10.87;;
4766;SDS011;2397;53.576;9.746;2022-12-11T14:47:46;15.67;;;9.80;;
4766;SDS011;2397;53.576;9.746;2022-12-11T14:50:26;13.27;;;8.83;;
4766;SDS011;2397;53.576;9.746;2022-12-11T14:53:01;15.53;;;8.93;;
4766;SDS011;2397;53.576;9.746;2022-12-11T14:55:33;21.23;;;8.90;;
4766;SDS011;2397;53.576;9.746;2022-12-11T14:58:02;13.33;;;7.90;;
4766;SDS011;2397;53.576;9.746;2022-12-11T15:00:34;14.27;;;8.40;;
4766;SDS011;2397;53.576;9.746;2022-12-11T15:03:06;13.93;;;9.20;;
4766;SDS011;2397;53.576;9.746;2022-12-11T15:05:51;15.70;;;9.50;;
4766;SDS011;2397;53.576;9.746;2022-12-11T15:08:32;15.87;;;9.10;;
4766;SDS011;2397;53.576;9.746;2022-12-11T15:11:02;17.23;;;9.70;;
4766;SDS011;2397;53.576;9.746;2022-12-11T15:13:32;19.70;;;10.13;;
4766;SDS011;2397;53.576;9.746;2022-12-11T15:16:01;15.33;;;8.80;;
4766;SDS011;2397;53.576;9.746;2022-12-11T15:18:31;17.50;;;9.40;;
4766;SDS011;2397;53.576;9.746;2022-12-11T15:21:04;14.97;;;8.17;;
4766;SDS011;2397;53.576;9.746;2022-12-11T15:23:50;15.23;;;9.43;;
4766;SDS011;2397;53.576;9.746;2022-12-11T15:26:20;20.70;;;11.70;;
4766;SDS011;2397;53.576;9.746;2022-12-11T15:29:19;19.80;;;10.93;;
4766;SDS011;2397;53.576;9.746;2022-12-11T15:34:34;22.57;;;13.00;;
4766;SDS011;2397;53.576;9.746;2022-12-11T15:39:55;23.17;;;12.30;;
4766;SDS011;2397;53.576;9.746;2022-12-11T15:42:24;21.60;;;11.53;;
4766;SDS011;2397;53.576;9.746;2022-12-11T15:44:57;27.97;;;15.80;;
4766;SDS011;2397;53.576;9.746;2022-12-11T15:47:25;25.50;;;14.70;;
4766;SDS011;2397;53.576;9.746;2022-12-11T15:50:00;23.67;;;14.60;;
4766;SDS011;2397;53.576;9.746;2022-12-11T15:52:32;23.00;;;13.77;;
4766;SDS011;2397;53.576;9.746;2022-12-11T15:54:59;21.70;;;12.20;;
4766;SDS011;2397;53.576;9.746;2022-12-11T15:57:26;18.73;;;12.57;;
4766;SDS011;2397;53.576;9.746;2022-12-11T15:59:52;41.47;;;14.07;;
4766;SDS011;2397;53.576;9.746;2022-12-11T16:02:20;22.50;;;12.90;;
4766;SDS011;2397;53.576;9.746;2022-12-11T16:04:46;22.37;;;13.03;;
4766;SDS011;2397;53.576;9.746;2022-12-11T16:07:16;22.20;;;14.33;;
4766;SDS011;2397;53.576;9.746;2022-12-11T16:09:45;21.30;;;14.33;;
4766;SDS011;2397;53.576;9.746;2022-12-11T16:12:11;27.30;;;15.07;;
4766;SDS011;2397;53.576;9.746;2022-12-11T16:14:40;23.90;;;14.93;;
4766;SDS011;2397;53.576;9.746;2022-12-11T16:17:07;24.83;;;14.80;;
4766;SDS011;2397;53.576;9.746;2022-12-11T16:19:35;27.20;;;15.07;;
4766;SDS011;2397;53.576;9.746;2022-12-11T16:22:01;23.70;;;13.90;;
4766;SDS011;2397;53.576;9.746;2022-12-11T16:24:29;28.37;;;15.67;;
4766;SDS011;2397;53.576;9.746;2022-12-11T16:26:55;27.23;;;16.00;;
4766;SDS011;2397;53.576;9.746;2022-12-11T16:29:22;23.37;;;15.10;;
4766;SDS011;2397;53.576;9.746;2022-12-11T16:31:48;38.90;;;16.50;;
4766;SDS011;2397;53.576;9.746;2022-12-11T16:34:14;28.57;;;16.67;;
4766;SDS011;2397;53.576;9.746;2022-12-11T16:36:41;25.27;;;16.40;;
4766;SDS011;2397;53.576;9.746;2022-12-11T16:39:09;31.67;;;19.80;;
4766;SDS011;2397;53.576;9.746;2022-12-11T16:41:37;32.70;;;20.83;;
4766;SDS011;2397;53.576;9.746;2022-12-11T16:44:03;38.67;;;20.80;;
4766;SDS011;2397;53.576;9.746;2022-12-11T16:46:30;43.43;;;23.83;;
4766;SDS011;2397;53.576;9.746;2022-12-11T16:48:56;41.00;;;22.47;;
4766;SDS011;2397;53.576;9.746;2022-12-11T16:51:23;42.27;;;25.37;;
4766;SDS011;2397;53.576;9.746;2022-12-11T16:53:49;44.90;;;25.27;;
4766;SDS011;2397;53.576;9.746;2022-12-11T16:56:16;50.57;;;25.23;;
4766;SDS011;2397;53.576;9.746;2022-12-11T16:58:42;47.27;;;25.67;;
4766;SDS011;2397;53.576;9.746;2022-12-11T17:01:10;41.73;;;24.47;;
4766;SDS011;2397;53.576;9.746;2022-12-11T17:03:40;43.37;;;25.80;;
4766;SDS011;2397;53.576;9.746;2022-12-11T17:06:08;42.47;;;25.07;;
4766;SDS011;2397;53.576;9.746;2022-12-11T17:08:37;41.80;;;25.43;;
4766;SDS011;2397;53.576;9.746;2022-12-11T17:11:04;41.70;;;25.27;;
4766;SDS011;2397;53.576;9.746;2022-12-11T17:13:32;37.83;;;22.50;;
4766;SDS011;2397;53.576;9.746;2022-12-11T17:16:04;31.73;;;21.50;;
4766;SDS011;2397;53.576;9.746;2022-12-11T17:18:32;34.90;;;20.73;;
4766;SDS011;2397;53.576;9.746;2022-12-11T17:20:59;48.77;;;26.63;;